Time;durP1;ratioP1;P1;durP2;ratioP2;P2;SDS_P1;SDS_P2;PMS_P1;PMS_P2;Temp;Humidity;BMP_temperature;BMP_pressure;BME280_temperature;BME280_humidity;BME280_pressure;Samples;Min_cycle;Max_cycle;Signal;HPM_P1;HPM_P2
2022/11/03 00:00:07;;;;;;;9.13;2.50;;;;;;;10.72;64.23;100447.94;5093490;28;20522;-63
2022/11/03 00:02:34;;;;;;;6.03;1.80;;;;;;;10.76;63.73;100445.84;5081163;28;20481;-63
2022/11/03 00:06:03;;;;;;;5.07;2.00;;;;;;;10.84;63.47;100438.81;5083346;28;20501;-63
2022/11/03 00:07:47;;;;;;;4.23;1.40;;;;;;;10.95;63.38;100442.38;5098242;28;20466;-64
2022/11/03 00:10:15;;;;;;;12.60;2.30;;;;;;;10.99;63.44;100435.75;5100824;28;20439;-64
2022/11/03 00:12:42;;;;;;;10.63;2.43;;;;;;;10.91;63.52;100436.44;5102870;28;20481;-64
2022/11/03 00:15:09;;;;;;;3.80;1.80;;;;;;;11.00;63.38;100434.78;5093276;28;20449;-64
2022/11/03 00:17:36;;;;;;;7.63;2.20;;;;;;;11.15;63.08;100419.16;5097794;28;20471;-64
2022/11/03 00:20:03;;;;;;;7.03;1.80;;;;;;;11.08;62.89;100432.25;5091009;28;20452;-64
2022/11/03 00:22:32;;;;;;;7.37;2.40;;;;;;;11.15;62.73;100421.84;5088097;28;21022;-64
2022/11/03 00:24:58;;;;;;;11.73;2.20;;;;;;;11.24;62.63;100412.97;5096021;28;20452;-64
2022/11/03 00:27:26;;;;;;;8.13;2.33;;;;;;;11.18;62.73;100411.69;5099216;28;20578;-64
2022/11/03 00:29:53;;;;;;;10.53;2.20;;;;;;;11.33;62.11;100419.28;5100576;28;20470;-64
2022/11/03 00:32:20;;;;;;;6.60;1.80;;;;;;;11.23;62.33;100419.28;5102756;28;20508;-63
2022/11/03 00:34:46;;;;;;;6.47;1.80;;;;;;;11.25;62.38;100403.97;5092290;28;20452;-63
2022/11/03 00:37:13;;;;;;;5.47;1.63;;;;;;;11.19;62.75;100408.03;5103277;28;20521;-63
2022/11/03 00:39:39;;;;;;;6.50;2.20;;;;;;;11.23;62.48;100404.09;5087733;28;20488;-63
2022/11/03 00:42:06;;;;;;;7.70;2.20;;;;;;;11.21;62.56;100405.22;5083387;28;20480;-64
2022/11/03 00:44:34;;;;;;;9.17;2.00;;;;;;;11.26;62.58;100393.09;5083781;28;20480;-64
2022/11/03 00:47:01;;;;;;;6.03;1.60;;;;;;;11.19;62.77;100391.97;5083229;28;20496;-65
2022/11/03 00:49:27;;;;;;;9.00;2.37;;;;;;;11.19;62.52;100388.44;5084196;28;20477;-65
2022/11/03 00:51:54;;;;;;;7.37;2.40;;;;;;;11.27;62.42;100380.56;5083169;28;20503;-65
2022/11/03 00:54:20;;;;;;;6.60;1.57;;;;;;;11.10;63.04;100377.59;5083801;28;20495;-65
2022/11/03 00:56:47;;;;;;;5.23;2.33;;;;;;;11.07;63.35;100379.72;5082733;28;20483;-65
2022/11/03 00:59:13;;;;;;;6.23;2.20;;;;;;;11.05;63.69;100371.81;5083590;28;20516;-64
2022/11/03 01:01:43;;;;;;;5.93;2.20;;;;;;;11.05;63.42;100381.69;5083147;28;20476;-64
2022/11/03 01:06:56;;;;;;;6.00;2.00;;;;;;;11.03;63.47;100375.66;5092065;28;20524;-64
2022/11/03 01:09:25;;;;;;;4.23;1.60;;;;;;;11.10;63.24;100379.44;5090845;28;20482;-64
2022/11/03 01:11:56;;;;;;;11.80;2.23;;;;;;;11.19;63.34;100375.91;5102649;28;20513;-64
2022/11/03 01:14:23;;;;;;;7.60;2.67;;;;;;;11.21;63.37;100365.91;5092094;28;20474;-64
2022/11/03 01:16:51;;;;;;;6.00;1.90;;;;;;;11.22;63.32;100375.63;5082876;28;20860;-63
2022/11/03 01:19:18;;;;;;;8.90;2.40;;;;;;;11.26;63.44;100379.69;5084312;28;20459;-64
2022/11/03 01:21:44;;;;;;;8.93;2.07;;;;;;;11.24;63.25;100359.44;5087320;28;20476;-64
2022/11/03 01:24:11;;;;;;;12.00;2.97;;;;;;;11.28;63.68;100356.34;5092222;28;20452;-64
2022/11/03 01:26:38;;;;;;;8.60;2.00;;;;;;;11.30;63.43;100351.69;5087721;28;20484;-64
2022/11/03 01:29:05;;;;;;;3.93;1.73;;;;;;;11.28;63.54;100358.16;5097731;28;20479;-64
2022/11/03 01:31:31;;;;;;;13.27;3.10;;;;;;;11.35;63.55;100350.41;5082360;28;20559;-64
2022/11/03 01:33:59;;;;;;;7.00;2.33;;;;;;;11.30;63.60;100358.84;5087743;28;20491;-64
2022/11/03 01:36:26;;;;;;;2.50;1.37;;;;;;;11.19;63.86;100354.50;5100727;28;20507;-64
2022/11/03 01:38:53;;;;;;;8.73;1.90;;;;;;;11.26;64.15;100357.47;5103129;28;20526;-64
2022/11/03 01:41:22;;;;;;;6.67;1.67;;;;;;;11.22;64.10;100353.38;5092693;28;20560;-64
2022/11/03 01:43:50;;;;;;;9.07;2.60;;;;;;;11.12;64.46;100348.03;5091504;28;20443;-63
2022/11/03 01:46:19;;;;;;;8.03;2.43;;;;;;;11.08;64.71;100351.97;5083580;28;21459;-64
2022/11/03 01:48:50;;;;;;;7.33;2.17;;;;;;;11.02;65.29;100352.53;5070373;28;20515;-64
2022/11/03 01:51:20;;;;;;;6.77;1.67;;;;;;;11.04;65.34;100350.56;5102335;28;20918;-64
2022/11/03 01:53:48;;;;;;;9.60;2.33;;;;;;;10.88;65.99;100348.44;5097266;28;21020;-64
2022/11/03 01:56:16;;;;;;;6.93;1.70;;;;;;;10.82;66.10;100346.34;5096693;28;20499;-64
2022/11/03 01:58:48;;;;;;;4.80;1.60;;;;;;;10.79;66.40;100346.63;5093275;28;20531;-65
2022/11/03 02:01:14;;;;;;;8.63;2.40;;;;;;;10.63;66.87;100337.31;5089702;28;21023;-64
2022/11/03 02:03:45;;;;;;;8.90;3.70;;;;;;;10.57;67.55;100339.69;5101796;28;20526;-65
2022/11/03 02:06:12;;;;;;;6.60;1.47;;;;;;;10.58;67.62;100349.41;5082792;28;20500;-65
2022/11/03 02:08:43;;;;;;;7.60;2.37;;;;;;;10.45;68.17;100339.84;5091060;28;20452;-65
2022/11/03 02:13:50;;;;;;;7.83;2.03;;;;;;;10.55;67.92;100330.00;5093760;28;20474;-65
2022/11/03 02:16:17;;;;;;;7.27;1.83;;;;;;;10.45;68.38;100321.13;5081836;28;20902;-64
2022/11/03 02:18:44;;;;;;;8.33;2.70;;;;;;;10.51;68.25;100311.69;5099206;28;20479;-64
2022/11/03 02:21:18;;;;;;;10.67;2.10;;;;;;;10.51;68.45;100317.88;5099542;28;20467;-64
2022/11/03 02:23:49;;;;;;;7.13;2.20;;;;;;;10.44;68.84;100307.91;5100620;28;20436;-64
2022/11/03 02:26:17;;;;;;;6.43;1.90;;;;;;;10.47;68.75;100302.28;5095139;28;20575;-64
2022/11/03 02:28:43;;;;;;;7.53;2.00;;;;;;;10.49;68.72;100293.13;5087896;28;20460;-64
2022/11/03 02:31:15;;;;;;;7.73;2.13;;;;;;;10.42;69.43;100293.81;5078645;28;20524;-64
2022/11/03 02:33:47;;;;;;;6.10;2.07;;;;;;;10.57;69.12;100295.09;5096328;28;20480;-65
2022/11/03 02:36:20;;;;;;;5.10;1.90;;;;;;;10.63;69.05;100288.34;5082313;28;21099;-65
2022/11/03 02:38:50;;;;;;;6.73;1.87;;;;;;;10.58;69.07;100274.56;5096632;28;20487;-64
2022/11/03 02:41:18;;;;;;;7.27;3.37;;;;;;;10.51;69.35;100267.09;5099240;28;20491;-64
2022/11/03 02:43:46;;;;;;;5.37;2.50;;;;;;;10.45;69.94;100270.34;5082355;28;20449;-64
2022/11/03 02:46:15;;;;;;;5.87;1.97;;;;;;;10.42;70.13;100267.09;5082393;28;20519;-64
2022/11/03 02:48:41;;;;;;;3.77;2.10;;;;;;;10.53;70.07;100262.44;5081278;28;20472;-64
2022/11/03 02:51:08;;;;;;;5.00;2.27;;;;;;;10.49;70.11;100247.69;5081699;28;20480;-64
2022/11/03 02:53:38;;;;;;;9.90;1.90;;;;;;;10.53;69.93;100258.94;5090817;28;20531;-65
2022/11/03 02:56:07;;;;;;;12.33;2.40;;;;;;;10.60;70.01;100256.53;5088015;28;20471;-65
2022/11/03 02:58:40;;;;;;;8.20;3.23;;;;;;;10.59;69.93;100244.16;5084967;28;20488;-64
2022/11/03 03:01:13;;;;;;;6.60;1.83;;;;;;;10.66;69.88;100246.13;5096693;28;20533;-65
2022/11/03 03:03:42;;;;;;;7.63;1.77;;;;;;;10.61;70.08;100242.22;5073093;28;20520;-64
2022/11/03 03:06:11;;;;;;;10.60;2.43;;;;;;;10.67;70.10;100236.28;5082738;28;20487;-65
2022/11/03 03:08:41;;;;;;;5.03;2.60;;;;;;;10.74;69.96;100242.75;5081597;28;20456;-65
2022/11/03 03:11:11;;;;;;;5.90;2.30;;;;;;;10.71;70.13;100232.31;5080380;28;20505;-65
2022/11/03 03:13:39;;;;;;;23.23;2.57;;;;;;;10.67;70.16;100237.13;5083013;28;20459;-65
2022/11/03 03:16:08;;;;;;;5.87;2.30;;;;;;;10.66;70.67;100234.56;5080719;28;20501;-65
2022/11/03 03:18:47;;;;;;;9.53;2.77;;;;;;;10.68;70.84;100228.13;5080943;28;20507;-65
2022/11/03 03:21:17;;;;;;;5.80;2.47;;;;;;;10.76;70.50;100231.91;5076300;28;20472;-65
2022/11/03 03:23:48;;;;;;;8.00;1.93;;;;;;;10.83;70.35;100225.00;5083090;28;20490;-66
2022/11/03 03:26:18;;;;;;;11.00;3.00;;;;;;;10.89;70.41;100219.09;5080506;28;20472;-66
2022/11/03 03:28:49;;;;;;;7.37;1.90;;;;;;;10.93;70.47;100221.31;5084391;28;20476;-66
2022/11/03 03:31:17;;;;;;;8.97;2.50;;;;;;;10.91;70.40;100209.91;5081163;28;20542;-65
2022/11/03 03:33:45;;;;;;;7.17;2.20;;;;;;;10.81;70.92;100208.25;5083103;28;20472;-65
2022/11/03 03:36:15;;;;;;;7.30;2.17;;;;;;;10.79;71.09;100208.41;5081669;28;20538;-65
2022/11/03 03:38:46;;;;;;;5.50;2.33;;;;;;;10.91;70.99;100207.25;5101278;28;20507;-65
2022/11/03 03:41:20;;;;;;;7.70;2.13;;;;;;;10.89;71.17;100206.56;5099785;28;21209;-65
2022/11/03 03:43:49;;;;;;;8.33;2.00;;;;;;;10.95;71.23;100191.75;5095775;28;20457;-65
2022/11/03 03:46:16;;;;;;;6.07;2.13;;;;;;;10.87;71.12;100199.69;5085778;28;20521;-65
2022/11/03 03:48:43;;;;;;;4.60;2.13;;;;;;;10.96;71.40;100198.81;5102360;28;20443;-65
2022/11/03 03:51:10;;;;;;;3.70;2.50;;;;;;;10.86;71.54;100193.47;5085138;28;20591;-65
2022/11/03 03:53:37;;;;;;;6.73;1.73;;;;;;;10.92;71.06;100182.19;5069315;28;20457;-65
2022/11/03 03:56:05;;;;;;;5.77;1.77;;;;;;;10.91;71.28;100182.34;5103033;28;20549;-65
2022/11/03 03:58:34;;;;;;;7.17;1.80;;;;;;;10.83;71.61;100183.06;5102503;28;20479;-65
2022/11/03 04:01:02;;;;;;;5.23;2.07;;;;;;;10.92;71.44;100176.84;5088128;28;20506;-65
2022/11/03 04:03:29;;;;;;;6.60;2.43;;;;;;;10.93;71.54;100188.38;5066197;28;20475;-65
2022/11/03 04:05:55;;;;;;;7.77;2.57;;;;;;;10.84;71.75;100183.91;5094899;28;20471;-65
2022/11/03 04:08:22;;;;;;;5.93;2.30;;;;;;;10.87;71.81;100179.13;5089480;28;20448;-65
2022/11/03 04:24:38;;;;;;;7.43;2.77;;;;;;;10.76;72.38;100170.41;5094966;28;20520;-64
2022/11/03 04:27:19;;;;;;;8.17;2.20;;;;;;;10.69;72.54;100167.44;5100152;28;20518;-64
2022/11/03 04:29:46;;;;;;;7.70;2.23;;;;;;;10.63;73.04;100158.19;5099836;28;21039;-65
2022/11/03 04:32:17;;;;;;;6.03;1.87;;;;;;;10.63;73.19;100155.50;5103497;28;20548;-65
2022/11/03 04:34:45;;;;;;;7.43;2.23;;;;;;;10.68;73.41;100155.09;5078093;28;20487;-65
2022/11/03 04:37:12;;;;;;;10.87;2.20;;;;;;;10.71;73.27;100150.31;5095617;28;20507;-64
2022/11/03 04:39:39;;;;;;;5.80;1.83;;;;;;;10.83;72.67;100148.31;5094807;28;20529;-64
2022/11/03 04:42:15;;;;;;;9.93;2.20;;;;;;;10.81;73.32;100146.75;5097093;28;21015;-64
2022/11/03 04:44:42;;;;;;;4.80;2.30;;;;;;;10.82;72.98;100140.44;5075377;28;20463;-64
2022/11/03 04:47:11;;;;;;;9.13;2.90;;;;;;;10.88;73.02;100148.72;5089666;28;20514;-64
2022/11/03 04:49:39;;;;;;;6.30;2.10;;;;;;;10.90;73.08;100140.53;5092826;28;20506;-64
2022/11/03 04:52:10;;;;;;;9.90;2.10;;;;;;;10.87;72.99;100139.00;5084276;28;20484;-63
2022/11/03 04:54:36;;;;;;;5.53;1.90;;;;;;;10.87;73.45;100132.81;5083376;28;20483;-64
2022/11/03 04:57:09;;;;;;;10.10;3.27;;;;;;;10.91;73.19;100128.84;5067972;28;20935;-64
2022/11/03 04:59:35;;;;;;;5.73;2.07;;;;;;;11.00;72.83;100130.63;5102713;28;20507;-64
2022/11/03 05:02:04;;;;;;;3.87;1.53;;;;;;;10.93;73.09;100135.72;5085505;28;20579;-64
2022/11/03 05:04:30;;;;;;;9.10;2.00;;;;;;;10.88;73.36;100132.66;5098079;28;20462;-64
2022/11/03 05:06:58;;;;;;;8.00;2.37;;;;;;;10.86;73.19;100123.91;5088685;28;20480;-64
2022/11/03 05:09:27;;;;;;;5.60;2.10;;;;;;;10.77;73.39;100130.16;5083100;28;20541;-64
2022/11/03 05:11:54;;;;;;;4.50;1.53;;;;;;;10.82;73.17;100119.03;5094890;28;20472;-64
2022/11/03 05:14:23;;;;;;;9.27;2.50;;;;;;;10.90;73.04;100111.97;5100044;28;20462;-64
2022/11/03 05:16:52;;;;;;;7.07;2.23;;;;;;;10.84;73.14;100115.22;5086879;28;20472;-64
2022/11/03 05:19:22;;;;;;;8.03;2.57;;;;;;;10.84;73.41;100107.19;5090230;28;20515;-64
2022/11/03 05:21:49;;;;;;;4.73;2.23;;;;;;;10.84;73.46;100112.53;5094063;28;20496;-64
2022/11/03 05:24:19;;;;;;;7.17;2.07;;;;;;;10.82;73.52;100108.34;5082552;28;20461;-64
2022/11/03 05:26:45;;;;;;;4.77;1.93;;;;;;;10.76;73.68;100092.84;5080312;28;20480;-65
2022/11/03 05:29:16;;;;;;;6.67;2.50;;;;;;;10.84;73.62;100104.50;5086014;28;20863;-65
2022/11/03 05:31:44;;;;;;;7.73;3.20;;;;;;;10.76;73.76;100093.69;5080582;28;20531;-64
2022/11/03 05:34:34;;;;;;;9.07;3.70;;;;;;;10.86;73.38;100088.31;5083213;28;20480;-68
2022/11/03 05:37:00;;;;;;;10.07;2.40;;;;;;;10.85;73.80;100091.97;5091479;28;20579;-68
2022/11/03 05:39:33;;;;;;;8.10;2.00;;;;;;;10.78;74.02;100077.50;5081392;28;20549;-68
2022/11/03 05:42:00;;;;;;;7.33;3.00;;;;;;;10.68;73.88;100073.03;5080717;28;20543;-67
2022/11/03 05:44:30;;;;;;;9.23;2.67;;;;;;;10.69;73.92;100074.75;5081385;28;20459;-68
2022/11/03 05:46:57;;;;;;;7.37;2.40;;;;;;;10.67;74.22;100075.84;5081027;28;20518;-68
2022/11/03 05:49:24;;;;;;;7.17;2.40;;;;;;;10.65;74.27;100073.31;5081165;28;20456;-68
2022/11/03 05:51:51;;;;;;;11.50;3.20;;;;;;;10.67;74.15;100071.34;5083040;28;20500;-68
2022/11/03 05:54:21;;;;;;;11.47;2.23;;;;;;;10.66;74.27;100064.31;5093424;28;20471;-68
2022/11/03 05:56:49;;;;;;;11.60;2.83;;;;;;;10.66;74.35;100069.69;5077739;28;20515;-67
2022/11/03 05:59:20;;;;;;;5.27;2.27;;;;;;;10.72;74.27;100068.25;5081128;28;20523;-68
2022/11/03 06:01:47;;;;;;;12.50;3.23;;;;;;;10.66;74.43;100056.31;5081573;28;20476;-68
2022/11/03 06:04:18;;;;;;;11.53;3.83;;;;;;;10.76;74.13;100069.63;5080565;28;20491;-67
2022/11/03 06:06:50;;;;;;;13.03;2.60;;;;;;;10.65;74.68;100072.50;5101778;28;20543;-64
2022/11/03 06:09:19;;;;;;;5.33;2.70;;;;;;;10.68;74.94;100059.66;5101308;28;20511;-63
2022/11/03 06:11:45;;;;;;;4.77;2.03;;;;;;;10.72;74.17;100062.91;5088729;28;20541;-67
2022/11/03 06:14:15;;;;;;;9.60;2.47;;;;;;;10.65;74.61;100069.81;5080208;28;20543;-67
2022/11/03 06:16:43;;;;;;;8.93;2.83;;;;;;;10.70;74.53;100073.72;5086830;28;20500;-67
2022/11/03 06:19:23;;;;;;;8.97;2.63;;;;;;;10.68;74.54;100072.22;5080674;28;20529;-65
2022/11/03 06:21:50;;;;;;;7.30;2.87;;;;;;;10.62;74.31;100070.09;5086842;28;20539;-65
2022/11/03 06:24:19;;;;;;;11.60;2.90;;;;;;;10.59;74.94;100065.91;5095822;28;20455;-65
2022/11/03 06:26:46;;;;;;;5.97;3.13;;;;;;;10.54;74.98;100058.31;5099995;28;20496;-65
2022/11/03 06:29:17;;;;;;;7.57;2.77;;;;;;;10.61;75.00;100055.91;5060821;28;20528;-67
2022/11/03 06:31:45;;;;;;;7.07;2.77;;;;;;;10.42;75.05;100050.63;5060472;28;20465;-65
2022/11/03 06:34:21;;;;;;;8.77;3.60;;;;;;;10.59;74.95;100057.03;5060854;28;20457;-65
2022/11/03 06:36:48;;;;;;;11.60;3.03;;;;;;;10.37;75.70;100048.38;5061407;28;20497;-65
2022/11/03 06:39:19;;;;;;;9.53;2.60;;;;;;;10.42;75.71;100047.94;5060002;28;20512;-65
2022/11/03 06:41:46;;;;;;;6.87;2.50;;;;;;;10.51;75.26;100049.75;5060849;28;20496;-65
2022/11/03 06:44:23;;;;;;;8.03;3.20;;;;;;;10.48;75.73;100042.84;5060349;28;20778;-65
2022/11/03 06:46:50;;;;;;;9.43;2.93;;;;;;;10.56;75.35;100039.47;5059883;28;20485;-66
2022/11/03 06:49:33;;;;;;;16.37;2.50;;;;;;;10.65;75.06;100045.75;5060891;28;20445;-66
2022/11/03 06:52:02;;;;;;;13.17;3.70;;;;;;;10.66;74.84;100040.25;5060955;28;20480;-66
2022/11/03 06:54:29;;;;;;;8.53;2.80;;;;;;;10.68;74.70;100035.59;5071141;28;20548;-66
2022/11/03 06:56:55;;;;;;;5.50;3.13;;;;;;;10.70;74.57;100036.31;5081018;28;20504;-66
2022/11/03 06:59:24;;;;;;;7.60;2.90;;;;;;;10.78;74.38;100030.22;5080312;28;20912;-66
2022/11/03 07:01:54;;;;;;;10.97;3.20;;;;;;;10.82;74.20;100033.44;5080356;28;20503;-66
2022/11/03 07:04:22;;;;;;;8.67;3.03;;;;;;;11.01;73.92;100028.00;5080838;28;20981;-66
2022/11/03 07:06:49;;;;;;;8.30;3.20;;;;;;;10.91;74.18;100025.38;5080566;28;20548;-66
2022/11/03 07:09:20;;;;;;;14.97;3.00;;;;;;;11.00;73.30;100020.97;5090732;28;20455;-66
2022/11/03 07:11:48;;;;;;;8.63;2.30;;;;;;;11.03;73.12;100017.16;5100958;28;20494;-66
2022/11/03 07:14:17;;;;;;;6.03;2.30;;;;;;;11.04;73.03;100017.00;5099771;28;20453;-66
2022/11/03 07:16:46;;;;;;;14.17;3.30;;;;;;;11.28;72.25;100013.78;5099455;28;20518;-66
2022/11/03 07:19:15;;;;;;;11.43;2.70;;;;;;;11.39;71.75;100012.69;5100315;28;20519;-66
2022/11/03 07:21:45;;;;;;;7.03;2.90;;;;;;;11.35;71.07;100008.63;5100597;28;21121;-66
2022/11/03 07:24:19;;;;;;;7.17;3.20;;;;;;;11.41;70.99;100013.38;5099212;28;20447;-66
2022/11/03 07:26:46;;;;;;;8.40;3.27;;;;;;;11.66;70.34;100011.78;5100641;28;20498;-66
2022/11/03 07:29:18;;;;;;;5.33;2.10;;;;;;;11.75;70.09;100014.53;5089840;28;20480;-66
2022/11/03 07:31:46;;;;;;;6.67;2.60;;;;;;;11.64;69.64;99997.69;5079088;28;20503;-67
2022/11/03 07:34:16;;;;;;;7.77;2.60;;;;;;;11.99;68.52;100006.72;5080080;28;20704;-66
2022/11/03 07:36:43;;;;;;;10.33;2.80;;;;;;;12.28;67.43;100005.59;5078679;28;20943;-66
2022/11/03 07:39:14;;;;;;;6.67;2.43;;;;;;;12.30;67.41;100006.28;5089365;28;20530;-66
2022/11/03 07:41:40;;;;;;;8.83;2.60;;;;;;;12.38;66.71;100000.97;5100336;28;20483;-66
2022/11/03 07:44:14;;;;;;;8.07;2.33;;;;;;;12.37;66.85;99996.59;5100044;28;20483;-66
2022/11/03 07:46:40;;;;;;;5.33;2.40;;;;;;;12.51;66.24;99995.16;5099593;28;20495;-66
2022/11/03 07:49:20;;;;;;;10.17;2.27;;;;;;;12.44;65.87;99989.59;5099656;28;20486;-66
2022/11/03 07:51:49;;;;;;;7.23;2.53;;;;;;;12.41;66.25;99981.91;5100092;28;21099;-66
2022/11/03 07:54:19;;;;;;;8.23;2.60;;;;;;;12.58;65.59;99984.66;5085491;28;20558;-67
2022/11/03 07:56:48;;;;;;;7.17;2.43;;;;;;;12.51;65.61;99988.97;5080017;28;20574;-67
2022/11/03 07:59:17;;;;;;;10.17;2.60;;;;;;;12.91;64.31;99982.09;5078943;28;20511;-66
2022/11/03 08:01:45;;;;;;;8.63;3.07;;;;;;;12.88;64.54;99972.56;5079289;28;20507;-66
2022/11/03 08:04:18;;;;;;;6.30;2.33;;;;;;;12.93;63.86;99970.22;5080240;28;20455;-66
2022/11/03 08:06:45;;;;;;;10.50;3.57;;;;;;;13.14;63.03;99967.09;5079974;28;20461;-66
2022/11/03 08:09:12;;;;;;;9.53;2.33;;;;;;;13.49;62.52;99964.31;5094191;28;20494;-66
2022/11/03 08:11:39;;;;;;;5.37;1.93;;;;;;;13.75;61.42;99965.00;5100114;28;20467;-66
2022/11/03 08:14:05;;;;;;;5.53;2.53;;;;;;;13.41;61.34;99962.47;5088865;28;20448;-66
2022/11/03 08:16:32;;;;;;;10.30;3.03;;;;;;;13.49;61.51;99949.03;5078961;28;20496;-66
2022/11/03 08:18:58;;;;;;;9.73;2.87;;;;;;;13.68;61.27;99944.31;5078810;28;20721;-66
2022/11/03 08:21:26;;;;;;;6.37;2.83;;;;;;;13.66;60.63;99936.47;5080227;28;20500;-66
2022/11/03 08:23:53;;;;;;;8.87;3.47;;;;;;;13.92;59.92;99932.72;5092840;28;20491;-66
2022/11/03 08:26:20;;;;;;;7.57;3.00;;;;;;;14.61;58.41;99927.69;5100032;28;20479;-66
2022/11/03 08:28:47;;;;;;;8.20;2.63;;;;;;;15.28;55.26;99920.94;5094272;28;20502;-66
2022/11/03 08:31:13;;;;;;;9.33;2.73;;;;;;;15.34;54.91;99919.38;5078995;28;20472;-66
2022/11/03 08:33:40;;;;;;;6.80;2.60;;;;;;;14.76;56.82;99903.59;5083192;28;20448;-66
2022/11/03 08:36:08;;;;;;;9.00;2.53;;;;;;;14.16;58.50;99901.44;5082680;28;20500;-66
2022/11/03 08:38:36;;;;;;;8.90;2.23;;;;;;;14.14;58.82;99896.22;5096170;28;20963;-66
2022/11/03 08:41:03;;;;;;;9.30;3.13;;;;;;;14.49;58.43;99891.41;5103427;28;20503;-67
2022/11/03 08:43:30;;;;;;;7.63;2.57;;;;;;;14.62;57.16;99880.13;5103047;28;20510;-66
2022/11/03 08:45:56;;;;;;;4.90;2.10;;;;;;;15.67;54.57;99882.22;5102141;28;20559;-67
2022/11/03 08:48:26;;;;;;;8.80;2.47;;;;;;;16.01;53.29;99875.50;5102786;28;20992;-67
2022/11/03 08:50:54;;;;;;;13.23;2.67;;;;;;;15.78;53.49;99870.19;5103116;28;20482;-66
2022/11/03 08:53:20;;;;;;;11.17;2.33;;;;;;;15.99;52.37;99869.47;5088014;28;20454;-67
2022/11/03 08:55:48;;;;;;;6.37;3.40;;;;;;;16.57;52.02;99867.72;5082139;28;20587;-67
2022/11/03 08:58:15;;;;;;;8.57;2.40;;;;;;;15.95;52.56;99870.84;5082426;28;20455;-67
2022/11/03 09:00:42;;;;;;;5.43;2.03;;;;;;;15.14;55.05;99874.06;5081914;28;20489;-67
2022/11/03 09:03:09;;;;;;;5.47;2.40;;;;;;;14.66;56.77;99874.19;5083050;28;20434;-67
2022/11/03 09:05:35;;;;;;;7.77;2.23;;;;;;;13.90;59.48;99872.94;5082168;28;20465;-67
2022/11/03 09:08:02;;;;;;;7.40;2.70;;;;;;;14.08;59.74;99876.25;5095874;28;20448;-67
2022/11/03 09:10:29;;;;;;;10.73;2.50;;;;;;;14.16;59.17;99870.00;5102456;28;20516;-67
2022/11/03 09:12:57;;;;;;;5.73;2.57;;;;;;;14.05;59.72;99862.31;5062314;28;20493;-67
2022/11/03 09:15:23;;;;;;;7.87;2.20;;;;;;;13.99;59.63;99850.44;5060135;28;20453;-68
2022/11/03 09:17:50;;;;;;;11.23;2.60;;;;;;;14.08;59.97;99843.19;5062549;28;20460;-67
2022/11/03 09:20:17;;;;;;;6.70;2.70;;;;;;;13.88;60.51;99845.41;5061847;28;20488;-67
2022/11/03 09:22:43;;;;;;;6.90;2.50;;;;;;;14.06;59.60;99840.66;5080419;28;20452;-67
2022/11/03 09:25:11;;;;;;;8.20;2.20;;;;;;;15.20;57.22;99842.88;5101795;28;20483;-67
2022/11/03 09:27:37;;;;;;;8.80;2.60;;;;;;;16.20;53.31;99844.44;5103298;28;20428;-67
2022/11/03 09:30:06;;;;;;;7.10;2.20;;;;;;;16.02;53.23;99841.28;5085074;28;20529;-67
2022/11/03 09:32:33;;;;;;;6.00;1.93;;;;;;;15.41;54.93;99831.44;5082463;28;20470;-67
2022/11/03 09:35:00;;;;;;;6.40;2.10;;;;;;;14.90;56.78;99845.47;5081782;28;20478;-67
2022/11/03 09:37:27;;;;;;;9.00;2.20;;;;;;;15.09;56.70;99837.94;5090171;28;20515;-67
2022/11/03 09:39:54;;;;;;;3.53;1.97;;;;;;;14.96;56.77;99836.66;5102167;28;20508;-67
2022/11/03 09:42:21;;;;;;;7.97;2.40;;;;;;;15.06;56.79;99833.75;5102068;28;20538;-67
2022/11/03 09:44:49;;;;;;;12.10;2.57;;;;;;;15.13;55.95;99845.47;5099709;28;20451;-67
2022/11/03 09:47:20;;;;;;;8.73;2.77;;;;;;;15.27;55.82;99834.94;5101793;28;20479;-67
2022/11/03 09:49:47;;;;;;;4.80;3.10;;;;;;;15.57;55.38;99830.44;5101897;28;20448;-68
2022/11/03 09:52:16;;;;;;;8.93;2.90;;;;;;;15.05;56.59;99826.66;5091052;28;20496;-66
2022/11/03 09:54:42;;;;;;;6.23;2.40;;;;;;;14.83;56.90;99815.72;5086502;28;20484;-66
2022/11/03 09:57:12;;;;;;;5.97;2.30;;;;;;;15.23;56.49;99829.06;5101745;28;20855;-66
2022/11/03 09:59:47;;;;;;;9.17;2.87;;;;;;;15.13;56.96;99818.53;5100131;28;20566;-66
2022/11/03 10:02:22;;;;;;;8.13;2.90;;;;;;;14.57;58.26;99799.06;5101846;28;20532;-66
2022/11/03 10:04:48;;;;;;;5.50;2.47;;;;;;;15.17;57.56;99801.00;5101970;28;20489;-67
2022/11/03 10:07:15;;;;;;;5.30;2.23;;;;;;;14.98;56.91;99807.72;5100587;28;20499;-66
2022/11/03 10:09:45;;;;;;;5.80;2.57;;;;;;;15.12;57.32;99797.16;5100659;28;20484;-66
2022/11/03 10:12:11;;;;;;;5.93;2.33;;;;;;;14.98;57.42;99793.41;5101435;28;20472;-67
2022/11/03 10:14:38;;;;;;;7.10;1.87;;;;;;;15.16;57.04;99796.63;5099585;28;20550;-67
2022/11/03 10:17:05;;;;;;;13.60;2.80;;;;;;;14.99;57.88;99795.09;5101137;28;20503;-67
2022/11/03 10:19:33;;;;;;;7.00;2.57;;;;;;;14.47;58.99;99788.53;5101191;28;20457;-67
2022/11/03 10:22:00;;;;;;;9.97;2.80;;;;;;;14.47;59.71;99797.44;5100018;28;20483;-66
2022/11/03 10:24:26;;;;;;;5.23;2.23;;;;;;;14.35;59.85;99787.25;5101651;28;20980;-66
2022/11/03 10:26:54;;;;;;;5.00;3.33;;;;;;;14.33;59.52;99787.44;5101300;28;20514;-67
2022/11/03 10:29:22;;;;;;;6.50;2.30;;;;;;;14.32;59.31;99769.59;5089970;28;20471;-67
2022/11/03 10:31:51;;;;;;;10.37;2.60;;;;;;;14.17;60.32;99774.91;5080806;28;20473;-67
2022/11/03 10:34:34;;;;;;;4.93;2.20;;;;;;;14.28;60.18;99774.50;5081079;28;20456;-67
2022/11/03 10:37:22;;;;;;;5.30;3.07;;;;;;;14.15;60.36;99752.75;5070532;28;20576;-67
2022/11/03 10:39:50;;;;;;;4.33;1.87;;;;;;;14.29;60.02;99749.31;5060234;28;20520;-67
2022/11/03 10:42:19;;;;;;;8.20;2.90;;;;;;;14.58;59.50;99744.22;5060716;28;20490;-67
2022/11/03 10:44:46;;;;;;;11.20;2.60;;;;;;;14.91;59.21;99739.47;5059440;28;20670;-68
2022/11/03 10:47:23;;;;;;;7.20;3.10;;;;;;;14.62;59.25;99737.53;5060033;28;20664;-67
2022/11/03 10:49:53;;;;;;;9.03;2.03;;;;;;;14.32;60.25;99740.88;5060477;28;20475;-67
2022/11/03 10:52:22;;;;;;;10.70;2.93;;;;;;;14.54;60.33;99724.94;5073791;28;20578;-67
2022/11/03 10:54:49;;;;;;;6.70;2.20;;;;;;;14.54;60.29;99718.72;5080757;28;20456;-67
2022/11/03 10:57:17;;;;;;;5.03;2.70;;;;;;;14.40;60.96;99713.09;5080439;28;20704;-67
2022/11/03 10:59:44;;;;;;;7.20;2.60;;;;;;;14.54;60.37;99695.34;5078693;28;21006;-66
2022/11/03 11:02:16;;;;;;;7.37;2.77;;;;;;;14.44;60.56;99710.88;5080968;28;20488;-67
2022/11/03 11:04:44;;;;;;;5.70;2.60;;;;;;;14.69;59.90;99711.56;5080643;28;20460;-67
2022/11/03 11:07:20;;;;;;;9.50;2.97;;;;;;;14.90;60.30;99699.28;5079556;28;20502;-67
2022/11/03 11:09:47;;;;;;;7.37;3.00;;;;;;;15.31;59.18;99698.88;5080611;28;20451;-67
2022/11/03 11:12:19;;;;;;;7.23;2.70;;;;;;;15.23;59.82;99694.41;5080608;28;20543;-67
2022/11/03 11:14:55;;;;;;;8.17;2.63;;;;;;;15.32;58.68;99681.69;5077428;28;20457;-67
2022/11/03 11:17:45;;;;;;;11.50;2.80;;;;;;;15.23;59.13;99681.78;5080018;28;20514;-68
2022/11/03 11:20:29;;;;;;;4.83;2.77;;;;;;;15.31;59.00;99685.41;5078741;28;20528;-68
2022/11/03 11:23:47;;;;;;;8.67;2.57;;;;;;;15.29;59.06;99674.81;5081037;28;20432;-68
2022/11/03 11:26:17;;;;;;;4.23;2.43;;;;;;;15.38;59.06;99660.25;5079376;28;20552;-67
2022/11/03 11:28:45;;;;;;;6.40;2.20;;;;;;;14.72;60.40;99654.72;5078857;28;20544;-67
2022/11/03 11:31:30;;;;;;;9.70;3.33;;;;;;;14.82;61.30;99655.25;5078180;28;20644;-67
2022/11/03 11:34:38;;;;;;;10.87;3.43;;;;;;;14.62;61.29;99638.00;5078454;28;20433;-67
2022/11/03 11:37:32;;;;;;;4.67;2.23;;;;;;;14.69;61.87;99638.94;5074905;28;20488;-68
2022/11/03 11:40:00;;;;;;;7.57;3.57;;;;;;;14.40;63.11;99634.28;5070803;28;20448;-68
2022/11/03 11:42:27;;;;;;;7.57;3.10;;;;;;;14.44;62.88;99630.19;5070579;28;20504;-67
2022/11/03 11:44:56;;;;;;;8.70;2.97;;;;;;;14.54;62.83;99620.03;5067781;28;20491;-67
2022/11/03 11:47:32;;;;;;;11.70;2.70;;;;;;;14.71;62.96;99620.75;5060766;28;20476;-67
2022/11/03 11:50:23;;;;;;;6.30;2.47;;;;;;;14.63;62.17;99601.97;5069143;28;20473;-68
2022/11/03 11:52:53;;;;;;;9.87;3.33;;;;;;;14.60;62.70;99600.50;5062830;28;20476;-67
2022/11/03 11:55:27;;;;;;;6.57;3.77;;;;;;;14.57;63.21;99598.16;5066814;28;20453;-67